Time;durP1;ratioP1;P1;durP2;ratioP2;P2;SDS_P1;SDS_P2;PMS_P1;PMS_P2;Temp;Humidity;BMP_temperature;BMP_pressure;BME280_temperature;BME280_humidity;BME280_pressure;Samples;Min_cycle;Max_cycle;Signal;HPM_P1;HPM_P2
2023/09/27 00:00:10;;;;;;;6.35;5.72;;;14.40;99.90;;;;;;4909238;29;20253;-88
2023/09/27 00:02:38;;;;;;;6.10;5.50;;;14.00;99.90;;;;;;4908473;29;20310;-88
2023/09/27 00:05:06;;;;;;;5.18;4.68;;;13.80;99.90;;;;;;4907988;29;20190;-88
2023/09/27 00:07:36;;;;;;;7.93;5.50;;;14.10;99.90;;;;;;4908966;29;20190;-87
2023/09/27 00:10:03;;;;;;;5.65;5.25;;;14.00;99.90;;;;;;4903802;29;20246;-88
2023/09/27 00:12:28;;;;;;;5.88;5.32;;;13.90;99.90;;;;;;4909298;29;20202;-88
2023/09/27 00:14:55;;;;;;;6.10;5.60;;;13.70;99.90;;;;;;4907761;29;20214;-88
2023/09/27 00:17:22;;;;;;;5.57;5.07;;;13.40;99.90;;;;;;4906700;29;20277;-87
2023/09/27 00:19:47;;;;;;;5.90;5.30;;;13.60;99.90;;;;;;4911677;29;20213;-88
2023/09/27 00:22:13;;;;;;;7.40;5.57;;;13.80;99.90;;;;;;4911757;29;20678;-87
2023/09/27 00:24:39;;;;;;;5.07;4.67;;;13.90;99.90;;;;;;4910062;29;20715;-87
2023/09/27 00:27:05;;;;;;;6.00;5.40;;;13.90;99.90;;;;;;4911503;29;20285;-87
2023/09/27 00:29:30;;;;;;;6.40;5.80;;;13.50;99.90;;;;;;4909305;29;20282;-87
2023/09/27 00:31:56;;;;;;;5.83;5.33;;;13.80;99.90;;;;;;4906259;29;20471;-88
2023/09/27 00:34:22;;;;;;;9.63;5.93;;;13.40;99.90;;;;;;4908299;29;20225;-88
2023/09/27 00:36:47;;;;;;;6.17;5.67;;;13.70;99.90;;;;;;4923760;29;20638;-88
2023/09/27 00:39:13;;;;;;;6.50;5.93;;;13.70;99.90;;;;;;4904786;29;20464;-88
2023/09/27 00:41:38;;;;;;;6.03;5.53;;;14.00;99.90;;;;;;4906769;29;20566;-89
2023/09/27 00:44:05;;;;;;;6.27;5.67;;;13.50;99.90;;;;;;4910402;29;20190;-88
2023/09/27 00:46:30;;;;;;;6.72;6.13;;;13.80;99.90;;;;;;4910668;29;20655;-88
2023/09/27 00:48:56;;;;;;;5.70;5.30;;;13.70;99.90;;;;;;4925630;29;20201;-87
2023/09/27 00:51:22;;;;;;;6.03;5.43;;;14.10;99.90;;;;;;4910608;29;20458;-89
2023/09/27 00:53:49;;;;;;;6.60;6.00;;;13.80;99.90;;;;;;4907761;29;20218;-87
2023/09/27 00:56:16;;;;;;;5.95;5.45;;;14.10;99.90;;;;;;4911006;29;20218;-87
2023/09/27 00:58:41;;;;;;;7.10;6.50;;;14.00;99.90;;;;;;4908881;29;20272;-87
2023/09/27 01:01:07;;;;;;;6.10;5.50;;;13.40;99.90;;;;;;4907925;29;20308;-87
2023/09/27 01:03:33;;;;;;;7.07;5.63;;;14.00;99.90;;;;;;4910764;29;20206;-87
2023/09/27 01:05:59;;;;;;;6.00;5.50;;;13.90;99.90;;;;;;4905769;29;20269;-88
2023/09/27 01:08:24;;;;;;;6.63;5.20;;;13.50;99.90;;;;;;4907000;29;20191;-87
2023/09/27 01:10:50;;;;;;;6.27;5.67;;;14.30;99.90;;;;;;4909321;29;20197;-87
2023/09/27 01:13:16;;;;;;;6.80;6.20;;;14.20;99.90;;;;;;4910991;29;20220;-88
2023/09/27 01:15:41;;;;;;;5.53;5.13;;;13.90;99.90;;;;;;4912836;29;20224;-87
2023/09/27 01:18:08;;;;;;;6.37;5.70;;;14.30;99.90;;;;;;4910755;29;20197;-87
2023/09/27 01:20:33;;;;;;;5.60;5.15;;;14.20;99.90;;;;;;4919278;29;20234;-87
2023/09/27 01:23:01;;;;;;;5.47;4.97;;;13.70;99.90;;;;;;4913861;29;20209;-87
2023/09/27 01:25:34;;;;;;;6.15;5.65;;;14.10;99.90;;;;;;4909872;29;20219;-87
2023/09/27 01:28:01;;;;;;;6.43;5.50;;;14.00;99.90;;;;;;4917431;29;20276;-87
2023/09/27 01:30:33;;;;;;;5.90;5.40;;;13.60;99.90;;;;;;4916140;29;20253;-87
2023/09/27 01:33:06;;;;;;;6.50;5.85;;;13.90;99.90;;;;;;4914502;29;20664;-88
2023/09/27 01:35:33;;;;;;;5.72;5.22;;;13.90;99.90;;;;;;4916122;29;20248;-86
2023/09/27 01:37:59;;;;;;;5.63;5.13;;;14.00;99.90;;;;;;4916656;29;20198;-88
2023/09/27 01:40:30;;;;;;;5.63;5.13;;;13.70;99.90;;;;;;4915649;29;21088;-87
2023/09/27 01:43:01;;;;;;;5.90;5.40;;;13.50;99.90;;;;;;4914832;29;20202;-88
2023/09/27 01:45:27;;;;;;;4.80;4.40;;;13.90;99.90;;;;;;4926325;29;20269;-88
2023/09/27 01:47:53;;;;;;;5.80;5.30;;;13.60;99.90;;;;;;4913225;29;20237;-87
2023/09/27 01:50:19;;;;;;;5.17;4.77;;;13.80;99.90;;;;;;4912672;29;20638;-87
2023/09/27 01:52:45;;;;;;;5.50;5.05;;;13.70;99.90;;;;;;4914017;29;21379;-88
2023/09/27 01:55:11;;;;;;;5.35;4.95;;;13.50;99.90;;;;;;4914617;29;20218;-89
2023/09/27 01:57:36;;;;;;;5.60;5.10;;;13.70;99.90;;;;;;4914463;29;20183;-88
2023/09/27 02:00:05;;;;;;;6.37;5.80;;;14.00;99.90;;;;;;4913778;29;20190;-89
2023/09/27 02:02:31;;;;;;;5.40;4.90;;;13.50;99.90;;;;;;4916399;29;20241;-88
2023/09/27 02:04:56;;;;;;;5.60;5.10;;;14.00;99.90;;;;;;4913945;29;20231;-88
2023/09/27 02:07:22;;;;;;;5.50;5.00;;;13.70;99.90;;;;;;4916677;29;20196;-89
2023/09/27 02:09:47;;;;;;;5.60;4.93;;;13.60;99.90;;;;;;4915527;29;20214;-88
2023/09/27 02:12:13;;;;;;;5.90;5.30;;;13.50;99.90;;;;;;4911817;29;20211;-87
2023/09/27 02:14:38;;;;;;;5.93;5.43;;;13.70;99.90;;;;;;4917775;29;20218;-87
2023/09/27 02:17:04;;;;;;;5.73;5.13;;;13.50;99.90;;;;;;4917148;29;20210;-88
2023/09/27 02:19:29;;;;;;;8.83;5.37;;;13.10;99.90;;;;;;4913145;29;20535;-87
2023/09/27 02:21:55;;;;;;;6.30;5.70;;;13.50;99.90;;;;;;4914277;29;20202;-89
2023/09/27 02:24:20;;;;;;;5.43;5.03;;;13.90;99.90;;;;;;4916389;29;20210;-88
2023/09/27 02:26:46;;;;;;;5.10;4.70;;;13.00;99.90;;;;;;4915727;29;20187;-87
2023/09/27 02:29:11;;;;;;;5.67;5.27;;;13.40;99.90;;;;;;4917123;29;20304;-88
2023/09/27 02:31:38;;;;;;;5.53;5.07;;;13.20;99.90;;;;;;4916650;29;20190;-87
2023/09/27 02:34:03;;;;;;;6.28;5.78;;;12.90;99.90;;;;;;4909969;29;20190;-88
2023/09/27 02:36:29;;;;;;;5.47;5.07;;;13.20;99.90;;;;;;4912128;29;20221;-91
2023/09/27 02:38:54;;;;;;;5.63;5.00;;;13.80;99.90;;;;;;4899894;29;20206;-92
2023/09/27 02:41:20;;;;;;;5.73;5.20;;;13.40;99.90;;;;;;4910282;29;20273;-91
2023/09/27 02:43:45;;;;;;;6.13;5.57;;;13.20;99.90;;;;;;4915536;29;20214;-91
2023/09/27 02:46:11;;;;;;;5.23;4.83;;;13.00;99.90;;;;;;4912849;29;20190;-91
2023/09/27 02:48:37;;;;;;;5.50;5.00;;;13.60;99.90;;;;;;4914464;29;20186;-91
2023/09/27 02:51:03;;;;;;;5.40;4.90;;;13.40;99.90;;;;;;4912757;29;20636;-92
2023/09/27 02:53:28;;;;;;;5.70;5.20;;;13.20;99.90;;;;;;4914346;29;20217;-93
2023/09/27 02:55:54;;;;;;;6.47;5.57;;;13.30;99.90;;;;;;4913504;29;20627;-92
2023/09/27 02:58:21;;;;;;;5.93;5.43;;;13.30;99.90;;;;;;4915494;29;20497;-93
2023/09/27 03:00:48;;;;;;;5.60;5.10;;;13.30;99.90;;;;;;4915139;29;20658;-91
2023/09/27 03:03:13;;;;;;;5.47;5.07;;;13.10;99.90;;;;;;4916329;29;20203;-91
2023/09/27 03:05:39;;;;;;;13.10;10.80;;;13.50;99.90;;;;;;4930303;28;20226;-93
2023/09/27 03:08:05;;;;;;;5.60;5.10;;;13.10;99.90;;;;;;4938026;28;20259;-92
2023/09/27 03:10:31;;;;;;;5.40;5.00;;;13.20;99.90;;;;;;4931402;28;20191;-92
2023/09/27 03:12:58;;;;;;;5.03;4.63;;;13.50;99.90;;;;;;4915929;29;20269;-93
2023/09/27 03:15:24;;;;;;;5.88;5.38;;;13.60;99.90;;;;;;4911966;29;20477;-92
2023/09/27 03:17:50;;;;;;;5.40;5.00;;;13.00;99.90;;;;;;4931786;28;20196;-91
2023/09/27 03:20:16;;;;;;;5.40;4.90;;;13.30;99.90;;;;;;4937451;28;20462;-92
2023/09/27 03:22:48;;;;;;;5.43;4.93;;;13.10;99.90;;;;;;4923889;29;20594;-91
2023/09/27 03:25:16;;;;;;;5.90;5.10;;;13.10;99.90;;;;;;4914253;29;20450;-91
2023/09/27 03:27:42;;;;;;;6.30;5.00;;;13.40;99.90;;;;;;4930136;29;20651;-92
2023/09/27 03:30:08;;;;;;;5.50;4.83;;;13.60;99.90;;;;;;4914213;29;20222;-92
2023/09/27 03:32:33;;;;;;;5.50;4.50;;;13.30;99.90;;;;;;4913633;29;20257;-91
2023/09/27 03:34:59;;;;;;;6.07;5.57;;;13.30;99.90;;;;;;4917418;29;20529;-92
2023/09/27 03:37:25;;;;;;;6.70;5.22;;;13.50;99.90;;;;;;4914868;29;20293;-92
2023/09/27 03:39:52;;;;;;;4.83;4.43;;;13.00;99.90;;;;;;4916444;29;20279;-92
2023/09/27 03:42:19;;;;;;;6.18;5.68;;;13.50;99.90;;;;;;4919532;29;20218;-92
2023/09/27 03:44:44;;;;;;;9.60;8.73;;;13.40;99.90;;;;;;4921299;29;20194;-92
2023/09/27 03:47:11;;;;;;;5.20;4.80;;;13.00;99.90;;;;;;4917747;29;20198;-92
2023/09/27 03:49:37;;;;;;;6.38;5.80;;;13.30;99.90;;;;;;4909411;29;20222;-92
2023/09/27 03:52:03;;;;;;;5.70;5.20;;;13.10;99.90;;;;;;4913972;29;20219;-92
2023/09/27 03:54:29;;;;;;;5.13;4.73;;;13.20;99.90;;;;;;4912936;29;20186;-92
2023/09/27 03:56:55;;;;;;;6.07;5.10;;;13.10;99.90;;;;;;4913455;29;20674;-93
2023/09/27 03:59:20;;;;;;;5.57;5.07;;;13.60;99.90;;;;;;4915440;29;20190;-92
2023/09/27 04:01:46;;;;;;;6.30;5.03;;;13.10;99.90;;;;;;4913574;29;20186;-92
2023/09/27 04:04:12;;;;;;;5.87;5.37;;;12.60;99.90;;;;;;4909228;29;20186;-93
2023/09/27 04:06:37;;;;;;;5.63;5.13;;;13.60;99.90;;;;;;4912164;29;20202;-92
2023/09/27 04:09:04;;;;;;;6.47;5.10;;;13.10;99.90;;;;;;4914756;29;20214;-92
2023/09/27 04:11:29;;;;;;;5.75;5.05;;;13.10;99.90;;;;;;4912534;29;20701;-92
2023/09/27 04:13:55;;;;;;;7.33;6.77;;;13.10;99.90;;;;;;4909826;29;20218;-92
2023/09/27 04:16:20;;;;;;;6.27;5.67;;;13.40;99.90;;;;;;4912920;29;20610;-92
2023/09/27 04:18:46;;;;;;;6.67;6.03;;;13.00;99.90;;;;;;4908348;29;20318;-91
2023/09/27 04:21:11;;;;;;;5.93;5.33;;;13.10;99.90;;;;;;4912230;29;20222;-91
2023/09/27 04:23:37;;;;;;;6.17;5.57;;;13.50;99.90;;;;;;4923705;29;20214;-93
2023/09/27 04:26:05;;;;;;;7.00;6.00;;;13.60;99.90;;;;;;4911060;29;20194;-90
2023/09/27 04:28:32;;;;;;;6.07;5.53;;;13.50;99.90;;;;;;4913165;29;20190;-93
2023/09/27 04:30:58;;;;;;;6.30;5.70;;;13.40;99.90;;;;;;4910766;29;20194;-91
2023/09/27 04:33:23;;;;;;;5.90;5.40;;;13.40;99.90;;;;;;4911212;29;20210;-92
2023/09/27 04:35:49;;;;;;;6.17;5.57;;;13.50;99.90;;;;;;4910262;29;20214;-92
2023/09/27 04:38:15;;;;;;;6.37;5.77;;;13.30;99.90;;;;;;4912735;29;20194;-91
2023/09/27 04:40:41;;;;;;;7.90;6.25;;;13.20;99.90;;;;;;4917449;29;20183;-92
2023/09/27 04:43:07;;;;;;;6.40;5.83;;;13.30;99.90;;;;;;4913521;29;20210;-92
2023/09/27 04:45:33;;;;;;;7.03;6.10;;;13.20;99.90;;;;;;4909093;29;20221;-92
2023/09/27 04:47:59;;;;;;;5.50;5.10;;;13.50;99.90;;;;;;4914269;29;20604;-91
2023/09/27 04:50:25;;;;;;;6.37;5.87;;;13.40;99.90;;;;;;4918970;29;20190;-91
2023/09/27 04:52:51;;;;;;;5.63;5.20;;;13.30;99.90;;;;;;4909420;29;20205;-93
2023/09/27 04:55:17;;;;;;;5.80;5.30;;;13.60;99.90;;;;;;4909051;29;20374;-92
2023/09/27 04:57:43;;;;;;;8.00;6.00;;;13.20;99.90;;;;;;4914993;29;20447;-92
2023/09/27 05:00:18;;;;;;;7.17;5.77;;;12.80;99.90;;;;;;4916601;29;20446;-91
2023/09/27 05:02:45;;;;;;;6.20;5.60;;;13.20;99.90;;;;;;4908870;29;20465;-93
2023/09/27 05:05:11;;;;;;;6.05;5.50;;;13.20;99.90;;;;;;4914568;29;20295;-92
2023/09/27 05:07:36;;;;;;;6.50;6.00;;;13.30;99.90;;;;;;4913814;29;20193;-91
2023/09/27 05:10:02;;;;;;;6.30;5.70;;;12.90;99.90;;;;;;4912848;29;20202;-92
2023/09/27 05:12:33;;;;;;;5.85;5.40;;;13.20;99.90;;;;;;4924141;28;20262;-92
2023/09/27 05:14:58;;;;;;;5.93;5.50;;;12.80;99.90;;;;;;4920963;29;20254;-83
2023/09/27 05:17:24;;;;;;;6.73;6.13;;;13.40;99.90;;;;;;4912605;29;20187;-85
2023/09/27 05:19:50;;;;;;;6.73;6.07;;;12.90;99.90;;;;;;4913234;29;20278;-88
2023/09/27 05:22:19;;;;;;;6.00;5.50;;;12.90;99.90;;;;;;4906836;29;20585;-85
2023/09/27 05:24:46;;;;;;;7.05;6.13;;;13.30;99.90;;;;;;4917247;29;20202;-87
2023/09/27 05:27:11;;;;;;;6.75;6.05;;;13.00;99.90;;;;;;4910295;29;20186;-87
2023/09/27 05:29:37;;;;;;;7.60;6.77;;;13.10;99.90;;;;;;4909703;29;20186;-87
2023/09/27 05:32:03;;;;;;;6.80;6.20;;;12.60;99.90;;;;;;4904055;29;20309;-88
2023/09/27 05:34:30;;;;;;;7.27;6.57;;;13.00;99.90;;;;;;4909479;29;20280;-86
2023/09/27 05:36:56;;;;;;;7.57;6.75;;;12.50;99.90;;;;;;4907331;29;20483;-87
2023/09/27 05:39:22;;;;;;;16.23;14.53;;;13.30;99.90;;;;;;4909931;29;20197;-87
2023/09/27 05:44:23;;;;;;;8.43;6.70;;;13.40;99.90;;;;;;5016451;23;20773;-87
2023/09/27 05:46:48;;;;;;;6.50;5.77;;;11.30;99.90;;;;;;4915935;29;20214;-85
2023/09/27 05:49:15;;;;;;;7.83;6.70;;;;;;;;;;4913350;29;20194;-87
2023/09/27 05:51:41;;;;;;;6.88;6.28;;;13.10;99.90;;;;;;4929306;29;20194;-89
2023/09/27 05:54:07;;;;;;;7.20;6.50;;;13.40;99.90;;;;;;4917940;29;20241;-89
2023/09/27 05:56:37;;;;;;;8.27;6.30;;;13.40;99.90;;;;;;4912790;29;20638;-88
2023/09/27 05:59:08;;;;;;;7.20;6.50;;;13.10;99.90;;;;;;4917167;29;20281;-89
2023/09/27 06:01:34;;;;;;;8.90;7.28;;;13.00;99.90;;;;;;4915564;29;20190;-89
2023/09/27 06:04:00;;;;;;;7.88;6.25;;;13.10;99.90;;;;;;4914745;29;20226;-89
2023/09/27 06:06:26;;;;;;;7.37;6.67;;;13.10;99.90;;;;;;4925941;29;20210;-89
2023/09/27 06:08:51;;;;;;;8.97;7.37;;;12.90;99.90;;;;;;4913462;29;20244;-89
2023/09/27 06:11:17;;;;;;;6.43;5.83;;;12.90;99.90;;;;;;4917537;29;20604;-89
2023/09/27 06:13:43;;;;;;;7.03;6.40;;;13.10;99.90;;;;;;4916085;29;20217;-88
2023/09/27 06:16:13;;;;;;;8.38;7.28;;;13.20;99.90;;;;;;4918252;29;20214;-89
2023/09/27 06:18:39;;;;;;;9.25;7.60;;;13.10;99.90;;;;;;4920350;29;20187;-88
2023/09/27 06:21:05;;;;;;;8.87;7.03;;;13.10;99.90;;;;;;4916314;29;20730;-87
2023/09/27 06:23:30;;;;;;;8.37;7.57;;;13.60;99.90;;;;;;4920498;29;20478;-88
2023/09/27 06:25:56;;;;;;;7.10;6.40;;;13.00;99.90;;;;;;4918645;29;20209;-87
2023/09/27 06:28:21;;;;;;;9.00;7.20;;;13.80;99.90;;;;;;4929553;29;20186;-87
2023/09/27 06:30:47;;;;;;;7.37;6.67;;;13.70;99.90;;;;;;4917390;29;20186;-88
2023/09/27 06:33:12;;;;;;;7.70;6.87;;;13.30;99.90;;;;;;4918909;29;20242;-87
2023/09/27 06:35:40;;;;;;;8.07;7.28;;;13.20;99.90;;;;;;4917322;29;20253;-88
2023/09/27 06:38:05;;;;;;;7.95;7.30;;;13.60;99.90;;;;;;4917155;29;20214;-91
2023/09/27 06:40:31;;;;;;;8.53;6.97;;;13.50;99.90;;;;;;4921358;29;20194;-91
2023/09/27 06:42:57;;;;;;;7.10;6.40;;;13.90;99.90;;;;;;4931267;28;20223;-90
2023/09/27 06:45:22;;;;;;;8.60;7.77;;;13.70;99.90;;;;;;4915911;29;20892;-87
2023/09/27 06:47:48;;;;;;;7.97;7.27;;;14.20;99.90;;;;;;4914714;29;20186;-86
2023/09/27 06:50:15;;;;;;;8.00;7.20;;;14.30;99.90;;;;;;4922949;29;20181;-85
2023/09/27 06:52:41;;;;;;;9.48;8.40;;;13.90;99.90;;;;;;4923924;29;20210;-85
2023/09/27 06:55:10;;;;;;;8.63;7.32;;;14.40;99.90;;;;;;4917731;29;20576;-86
2023/09/27 06:57:38;;;;;;;8.27;6.95;;;14.30;99.90;;;;;;4925828;29;20289;-85
2023/09/27 07:00:18;;;;;;;8.10;7.05;;;15.00;99.90;;;;;;4922734;29;20197;-87
2023/09/27 07:02:46;;;;;;;7.55;6.35;;;14.70;99.90;;;;;;4923170;29;20217;-85
2023/09/27 07:05:11;;;;;;;8.20;7.40;;;15.30;99.90;;;;;;4922196;29;20213;-86
2023/09/27 07:07:38;;;;;;;8.20;7.40;;;14.90;99.90;;;;;;4923084;29;20183;-88
2023/09/27 07:10:04;;;;;;;7.80;6.32;;;15.70;99.90;;;;;;4922414;29;20999;-88
2023/09/27 07:12:30;;;;;;;6.72;6.13;;;15.40;99.90;;;;;;4919127;29;20225;-88
2023/09/27 07:14:57;;;;;;;7.60;6.30;;;16.50;99.90;;;;;;4918712;29;20206;-87
2023/09/27 07:17:25;;;;;;;14.93;10.63;;;17.10;99.90;;;;;;4918675;29;20194;-89
2023/09/27 07:19:53;;;;;;;7.28;6.57;;;17.50;99.90;;;;;;4921798;29;20221;-89
2023/09/27 07:22:19;;;;;;;7.70;6.32;;;18.50;99.90;;;;;;4919013;29;20210;-87
2023/09/27 07:24:45;;;;;;;7.60;6.90;;;18.60;99.90;;;;;;4919488;29;20786;-89
2023/09/27 07:27:12;;;;;;;9.87;7.60;;;19.20;99.90;;;;;;4916298;29;20446;-88
2023/09/27 07:29:37;;;;;;;6.93;6.32;;;18.50;99.90;;;;;;4920678;29;20912;-88
2023/09/27 07:32:04;;;;;;;9.43;7.00;;;18.80;99.90;;;;;;4917451;29;20302;-89
2023/09/27 07:34:30;;;;;;;11.98;7.10;;;18.40;99.90;;;;;;4914994;29;20329;-87
2023/09/27 07:36:56;;;;;;;7.13;6.47;;;19.00;99.90;;;;;;4918555;29;20190;-88
2023/09/27 07:39:22;;;;;;;7.10;6.43;;;18.90;99.90;;;;;;4920359;29;20190;-88
2023/09/27 07:41:49;;;;;;;13.60;10.35;;;19.00;99.90;;;;;;4916584;29;20186;-85
2023/09/27 07:44:15;;;;;;;10.23;9.20;;;20.60;99.90;;;;;;4922638;29;20411;-87
2023/09/27 07:46:41;;;;;;;7.80;7.10;;;21.40;99.00;;;;;;4920264;29;20258;-88
2023/09/27 07:49:06;;;;;;;6.60;6.10;;;23.00;95.90;;;;;;4915141;29;20540;-84
2023/09/27 07:51:33;;;;;;;6.53;5.90;;;24.20;92.70;;;;;;4920117;29;20510;-88
2023/09/27 07:53:59;;;;;;;6.30;5.53;;;24.20;91.40;;;;;;4915822;29;20248;-85
2023/09/27 07:56:26;;;;;;;9.67;8.30;;;24.40;91.70;;;;;;4914038;29;20558;-84
2023/09/27 07:58:53;;;;;;;7.50;6.30;;;23.90;91.70;;;;;;4916946;29;20451;-85
2023/09/27 08:01:20;;;;;;;7.97;6.57;;;23.10;92.50;;;;;;4912512;29;20481;-86
2023/09/27 08:03:48;;;;;;;8.40;7.60;;;22.30;93.70;;;;;;4911955;29;20478;-87
2023/09/27 08:06:14;;;;;;;10.57;9.67;;;22.40;94.60;;;;;;4912486;29;20461;-87
2023/09/27 08:08:40;;;;;;;7.40;6.57;;;21.60;95.20;;;;;;4913982;29;20446;-87
2023/09/27 08:11:05;;;;;;;6.60;6.00;;;21.20;96.30;;;;;;4917208;29;20210;-86
2023/09/27 08:13:31;;;;;;;7.53;6.43;;;21.30;96.30;;;;;;4913031;29;20469;-87
2023/09/27 08:15:57;;;;;;;6.77;6.10;;;21.20;96.20;;;;;;4913733;29;20216;-87
2023/09/27 08:18:24;;;;;;;6.77;6.27;;;20.90;97.00;;;;;;4912954;29;20442;-89
2023/09/27 08:20:52;;;;;;;10.27;9.35;;;20.40;97.80;;;;;;4917857;29;20640;-89
2023/09/27 08:23:18;;;;;;;7.22;6.53;;;20.30;99.60;;;;;;4913535;29;20213;-87
2023/09/27 08:25:43;;;;;;;8.53;7.70;;;20.00;99.80;;;;;;4913643;29;20187;-88
2023/09/27 08:28:09;;;;;;;8.70;7.90;;;19.60;99.90;;;;;;4916141;29;20233;-89
2023/09/27 08:30:35;;;;;;;8.47;6.73;;;19.60;99.90;;;;;;4914395;29;20262;-88
2023/09/27 08:33:01;;;;;;;6.70;6.00;;;19.90;99.90;;;;;;4912714;29;20588;-88
2023/09/27 08:35:27;;;;;;;15.23;13.73;;;19.90;99.90;;;;;;4914425;29;20217;-88
2023/09/27 08:37:52;;;;;;;11.75;10.00;;;20.00;99.90;;;;;;4917851;29;20459;-86
2023/09/27 08:40:18;;;;;;;8.50;7.70;;;20.10;99.90;;;;;;4916003;29;20261;-86
2023/09/27 08:42:47;;;;;;;7.50;6.80;;;20.50;99.90;;;;;;4913478;29;20198;-85
2023/09/27 08:45:14;;;;;;;8.00;6.78;;;19.70;99.90;;;;;;4919012;29;20194;-85
2023/09/27 08:47:41;;;;;;;7.30;6.47;;;19.60;99.90;;;;;;4915760;29;20186;-84
2023/09/27 08:50:10;;;;;;;10.13;6.00;;;19.70;99.90;;;;;;4918449;29;20209;-84
2023/09/27 08:52:36;;;;;;;5.25;4.85;;;19.40;99.90;;;;;;4918850;29;20216;-84
2023/09/27 08:55:03;;;;;;;4.25;3.85;;;20.10;99.90;;;;;;4916156;29;20198;-84
2023/09/27 08:57:30;;;;;;;5.55;5.07;;;20.00;99.90;;;;;;4921420;29;20186;-84
2023/09/27 08:59:55;;;;;;;4.28;3.97;;;20.70;99.90;;;;;;4919085;29;20182;-85
2023/09/27 09:02:24;;;;;;;4.57;4.17;;;21.40;98.50;;;;;;4915292;29;20218;-83
2023/09/27 09:04:50;;;;;;;4.80;4.30;;;22.10;97.00;;;;;;4917929;29;20281;-84
2023/09/27 09:07:15;;;;;;;6.20;4.70;;;22.90;96.90;;;;;;4920210;29;21818;-83
2023/09/27 09:09:41;;;;;;;5.53;5.03;;;22.40;97.00;;;;;;4919141;29;20461;-84
2023/09/27 09:12:09;;;;;;;6.13;5.43;;;22.30;96.90;;;;;;4933605;29;20214;-84
2023/09/27 09:14:43;;;;;;;5.67;5.27;;;22.10;96.60;;;;;;4918136;29;20199;-84
2023/09/27 09:17:10;;;;;;;6.40;5.80;;;21.70;96.60;;;;;;4914563;29;20450;-85
2023/09/27 09:19:38;;;;;;;5.57;5.03;;;22.00;96.90;;;;;;4913938;29;20454;-85
2023/09/27 09:22:08;;;;;;;7.60;5.43;;;21.40;96.70;;;;;;4913869;29;20480;-85
2023/09/27 09:24:35;;;;;;;6.40;5.00;;;21.80;97.00;;;;;;4919085;29;20457;-85
2023/09/27 09:27:11;;;;;;;5.20;4.80;;;22.10;97.10;;;;;;4916940;29;20461;-82
2023/09/27 09:29:53;;;;;;;5.53;5.03;;;21.70;96.70;;;;;;4914133;29;20457;-88
2023/09/27 09:32:21;;;;;;;7.57;4.93;;;21.70;96.90;;;;;;4916960;29;20933;-86
2023/09/27 09:34:48;;;;;;;4.93;4.53;;;22.20;96.50;;;;;;4915774;29;20462;-86
2023/09/27 09:37:26;;;;;;;6.13;5.30;;;22.70;96.10;;;;;;4908928;29;20446;-87
2023/09/27 09:40:05;;;;;;;4.40;4.00;;;23.60;95.00;;;;;;4911549;29;20870;-87
2023/09/27 09:49:34;;;;;;;;;;;;;;;;;;;;;
2023/09/27 10:04:59;;;;;;;7.20;5.17;;;38.30;45.10;;;;;;5655043;23;20488;-91
2023/09/27 10:07:25;;;;;;;6.10;3.80;;;39.80;45.10;;;;;;4935894;29;20472;-90
2023/09/27 10:09:52;;;;;;;4.10;3.73;;;39.10;43.60;;;;;;4953859;29;20540;-90
2023/09/27 10:12:21;;;;;;;4.77;4.23;;;39.00;43.10;;;;;;4936796;29;20472;-90
2023/09/27 10:15:09;;;;;;;4.47;4.10;;;35.50;45.80;;;;;;4933505;29;20556;-89
2023/09/27 10:17:46;;;;;;;4.40;4.00;;;33.50;50.00;;;;;;4932860;29;20837;-88
2023/09/27 10:20:22;;;;;;;6.37;5.83;;;32.30;52.20;;;;;;4930733;29;20459;-88
2023/09/27 10:22:50;;;;;;;6.30;5.40;;;32.80;56.30;;;;;;4933780;29;21043;-88
2023/09/27 10:25:27;;;;;;;5.07;4.20;;;30.30;57.30;;;;;;4929290;29;20709;-87
2023/09/27 10:27:59;;;;;;;4.23;3.83;;;29.20;59.40;;;;;;4931946;29;20461;-88
2023/09/27 10:30:25;;;;;;;4.80;4.40;;;28.10;63.80;;;;;;4931078;29;20448;-87
2023/09/27 10:33:14;;;;;;;4.83;3.90;;;27.20;67.00;;;;;;4931784;29;21025;-88
2023/09/27 10:35:39;;;;;;;5.03;4.63;;;26.60;68.50;;;;;;4932913;29;20497;-90
2023/09/27 10:38:09;;;;;;;5.43;4.13;;;26.50;70.50;;;;;;4933866;29;20576;-89
2023/09/27 10:40:42;;;;;;;4.60;3.90;;;26.60;73.00;;;;;;4931632;29;20653;-87
2023/09/27 10:43:46;;;;;;;4.73;4.30;;;26.10;72.80;;;;;;4934980;29;20610;-86
2023/09/27 10:46:11;;;;;;;4.50;4.20;;;27.30;73.00;;;;;;4836375;29;20657;-87
2023/09/27 10:48:42;;;;;;;4.53;4.13;;;26.80;71.30;;;;;;4823516;29;20450;-87
2023/09/27 10:51:08;;;;;;;9.10;8.30;;;27.90;69.40;;;;;;4878535;29;20190;-87
2023/09/27 10:53:34;;;;;;;4.90;4.40;;;28.00;67.00;;;;;;4935911;29;20482;-87
2023/09/27 10:55:59;;;;;;;4.00;3.70;;;28.60;67.50;;;;;;4930480;29;21037;-86
2023/09/27 10:58:25;;;;;;;5.20;3.83;;;29.40;65.80;;;;;;4933963;29;20193;-87
2023/09/27 11:00:56;;;;;;;5.73;5.23;;;28.70;64.30;;;;;;4934048;29;20613;-87
2023/09/27 11:03:23;;;;;;;4.33;4.03;;;28.80;63.10;;;;;;4931407;29;20212;-86
2023/09/27 11:05:49;;;;;;;6.50;5.90;;;28.80;63.30;;;;;;4935734;29;20517;-87
2023/09/27 11:08:23;;;;;;;3.03;2.73;;;28.10;65.00;;;;;;4940506;29;20450;-86
2023/09/27 11:10:51;;;;;;;5.30;4.90;;;27.50;63.80;;;;;;4937807;29;20460;-87
2023/09/27 11:13:17;;;;;;;4.30;3.40;;;28.30;66.10;;;;;;4935986;29;20471;-87
2023/09/27 11:15:43;;;;;;;3.67;3.00;;;28.70;65.80;;;;;;4934363;29;20496;-87
2023/09/27 11:18:10;;;;;;;3.63;3.10;;;29.00;66.20;;;;;;4933583;29;20246;-87
2023/09/27 11:20:42;;;;;;;6.00;3.50;;;27.00;66.40;;;;;;4932401;29;20717;-87
2023/09/27 11:23:07;;;;;;;8.80;8.00;;;26.40;67.70;;;;;;4932841;29;20834;-87
2023/09/27 11:25:37;;;;;;;6.80;6.10;;;26.60;70.10;;;;;;4931364;29;20445;-87
2023/09/27 11:28:04;;;;;;;4.23;3.70;;;26.60;70.90;;;;;;4932979;29;20184;-87
2023/09/27 11:30:34;;;;;;;8.60;4.93;;;26.60;69.30;;;;;;4933306;29;20529;-87
2023/09/27 11:33:04;;;;;;;7.20;4.63;;;26.90;70.00;;;;;;4927775;29;20840;-87
2023/09/27 11:35:30;;;;;;;5.33;3.60;;;26.50;69.90;;;;;;4931836;29;20970;-86
2023/09/27 11:38:06;;;;;;;4.80;3.53;;;26.50;69.90;;;;;;4933049;29;20453;-86
2023/09/27 11:40:33;;;;;;;3.77;2.97;;;26.20;70.60;;;;;;4930020;29;20192;-87
2023/09/27 11:42:58;;;;;;;3.87;3.57;;;26.40;70.70;;;;;;4933152;29;20900;-85
2023/09/27 11:45:24;;;;;;;5.20;3.17;;;26.30;71.20;;;;;;4931786;29;20540;-88
2023/09/27 11:47:51;;;;;;;3.70;3.40;;;25.70;70.10;;;;;;4932156;29;20205;-88
2023/09/27 11:50:19;;;;;;;2.93;2.60;;;25.60;71.60;;;;;;4927017;29;20267;-89
2023/09/27 11:52:46;;;;;;;3.17;2.90;;;25.60;70.20;;;;;;4930132;29;20480;-89
2023/09/27 11:55:18;;;;;;;3.77;3.47;;;25.70;68.80;;;;;;4928766;29;20485;-89
2023/09/27 11:57:46;;;;;;;3.43;3.13;;;25.20;69.90;;;;;;4931625;29;20455;-89
2023/09/27 12:00:15;;;;;;;2.77;2.57;;;25.60;70.30;;;;;;4931330;29;20535;-89
2023/09/27 12:03:10;;;;;;;3.30;3.10;;;25.40;70.60;;;;;;5214419;23;20516;-89
2023/09/27 12:16:23;;;;;;;;;;;;;;;;;;;;;
2023/09/27 12:18:49;;;;;;;3.03;2.67;;;27.90;73.50;;;;;;4931351;29;20819;-90
2023/09/27 12:21:18;;;;;;;3.17;2.97;;;27.20;73.80;;;;;;4927888;29;20452;-90
2023/09/27 12:23:45;;;;;;;4.07;3.20;;;27.90;77.00;;;;;;4932382;29;20210;-89
2023/09/27 12:26:10;;;;;;;3.30;3.10;;;25.50;70.40;;;;;;4935032;29;20805;-87
2023/09/27 12:28:37;;;;;;;3.47;3.17;;;25.80;73.30;;;;;;4924361;29;20957;-88
2023/09/27 12:31:07;;;;;;;3.40;2.93;;;26.90;73.60;;;;;;4925055;29;20452;-89
2023/09/27 12:33:34;;;;;;;3.00;2.70;;;27.30;71.00;;;;;;4928658;29;20245;-88
2023/09/27 12:36:01;;;;;;;3.90;3.33;;;25.90;71.10;;;;;;4922215;29;20552;-88
2023/09/27 12:38:27;;;;;;;4.80;2.87;;;28.00;73.40;;;;;;4925948;29;20561;-89
2023/09/27 12:40:53;;;;;;;3.17;2.87;;;28.40;73.80;;;;;;4926744;29;20449;-88
2023/09/27 12:43:18;;;;;;;4.03;3.37;;;26.20;70.90;;;;;;4930450;29;20292;-89
2023/09/27 12:45:44;;;;;;;3.93;2.50;;;27.10;71.90;;;;;;4925798;29;21130;-87
2023/09/27 12:48:10;;;;;;;3.43;3.13;;;28.40;73.20;;;;;;4936734;29;20245;-88
2023/09/27 12:50:41;;;;;;;2.77;2.57;;;27.30;72.10;;;;;;4933892;29;20660;-87
2023/09/27 12:53:07;;;;;;;3.13;2.93;;;28.60;72.20;;;;;;4925805;29;20507;-87
2023/09/27 12:55:32;;;;;;;3.73;3.43;;;26.50;72.20;;;;;;4933025;29;20493;-88
2023/09/27 12:58:00;;;;;;;3.13;2.73;;;28.00;73.50;;;;;;4929512;29;20186;-89
2023/09/27 13:00:26;;;;;;;2.70;2.50;;;28.50;72.90;;;;;;4929556;29;20190;-87
2023/09/27 13:02:52;;;;;;;3.37;3.13;;;27.60;72.60;;;;;;4931088;29;20464;-88
2023/09/27 13:05:25;;;;;;;3.50;3.20;;;27.70;74.70;;;;;;4942213;28;20182;-88
2023/09/27 13:07:51;;;;;;;3.27;3.00;;;26.30;72.90;;;;;;4946432;28;20170;-87
2023/09/27 13:10:18;;;;;;;2.87;2.67;;;27.90;72.90;;;;;;4944215;29;20532;-87
2023/09/27 13:12:44;;;;;;;3.30;3.03;;;26.50;72.10;;;;;;4943160;29;20232;-88
2023/09/27 13:15:10;;;;;;;2.77;2.57;;;28.00;72.60;;;;;;4950674;29;20515;-89
2023/09/27 13:17:35;;;;;;;3.00;2.80;;;26.50;72.00;;;;;;4940786;29;20520;-88
2023/09/27 13:20:01;;;;;;;4.00;3.70;;;26.50;71.00;;;;;;4937679;29;20453;-87